Latest Weather Observations for Neptune Island

IDS60801

Issued at 7:31 pm CST Saturday 28 May 2016 (issued every 30 minutes, with the page automatically refreshed every 10 minutes)

About weather observations | Map of weather stations | Latest weather observations for SA | Other Formats
Station Details ID: 018115 Name: NEPTUNE ISLAND Lat: -35.34 Lon: 136.12 Height: 32.0 m
Data from the previous 72 hours. | See also: Recent months at Neptune Island
Date/Time
CST
Temp
°C
App
Temp
°C
Dew
Point
Rel
Hum
%
Delta-T
°C
Wind Press
QNH
hPa
Press
MSL
hPa
Rain
since 9 am
mm
Dir
 
Spd
km/h
Gust
km/h
Spd
kts
Gust
kts
28/07:30pm 13.3 10.4 6.4 63 3.3 SE 11 15 6 8 1017.7 1017.6 0.0
28/07:00pm 13.7 11.7 6.1 60 3.6 SSW 6 9 3 5 1017.6 1017.5 0.0
28/06:30pm 13.9 11.8 6.0 59 3.8 WSW 6 9 3 5 1017.7 1017.6 0.0
28/06:00pm 13.9 11.4 6.5 61 3.6 SW 9 11 5 6 1017.5 1017.4 0.0
28/05:30pm 14.1 12.0 6.5 60 3.7 SSW 7 9 4 5 1017.4 1017.3 0.0
28/05:00pm 14.6 12.6 6.2 57 4.0 SSW 6 11 3 6 1017.3 1017.2 0.0
28/04:30pm 15.4 13.0 7.2 58 4.0 SW 9 13 5 7 1017.1 1017.0 0.0
28/04:00pm 15.7 13.6 6.7 55 4.4 WSW 7 15 4 8 1017.2 1017.1 0.0
28/03:30pm 16.0 13.6 7.2 56 4.4 SW 9 13 5 7 1017.2 1017.1 0.0
28/03:00pm 15.9 13.2 7.4 57 4.2 S 11 13 6 7 1017.0 1016.9 0.0
28/02:30pm 16.2 14.0 7.7 57 4.3 SSW 9 13 5 7 1016.9 1016.8 0.0
28/02:00pm 15.5 12.7 6.8 56 4.3 S 11 15 6 8 1016.9 1016.8 0.0
28/01:30pm 16.2 14.3 7.7 57 4.3 SSW 7 11 4 6 1016.9 1016.8 0.0
28/01:00pm 15.8 12.5 6.5 54 4.5 SSW 13 15 7 8 1017.0 1016.9 0.0
28/12:30pm 16.1 13.4 7.3 56 4.4 S 11 15 6 8 1017.2 1017.1 0.0
28/12:00pm 15.8 12.4 7.8 59 4.0 S 15 17 8 9 1017.4 1017.3 0.0
28/11:30am 16.0 13.0 9.2 64 3.5 SSE 15 20 8 11 1017.6 1017.5 0.0
28/11:00am 15.3 11.7 8.5 64 3.4 S 17 22 9 12 1017.8 1017.7 0.0
28/10:30am 15.6 11.5 8.8 64 3.5 S 20 26 11 14 1018.0 1017.9 0.0
28/10:00am 15.4 10.7 9.1 66 3.2 S 24 32 13 17 1017.9 1017.8 0.0
28/09:30am 15.2 10.3 9.8 70 2.8 SSE 26 33 14 18 1017.7 1017.6 0.0
28/09:00am 14.8 8.6 9.4 70 2.8 S 32 39 17 21 1017.1 1017.0 5.6
28/08:30am 14.7 8.5 9.5 71 2.7 S 32 41 17 22 1016.7 1016.6 5.6
28/08:00am 14.3 8.3 8.5 68 2.9 SSE 30 39 16 21 1016.3 1016.2 5.6
28/07:30am 14.3 7.9 8.5 68 2.9 SSE 32 41 17 22 1016.1 1016.0 5.6
28/07:00am 14.6 7.6 9.8 73 2.5 S 37 46 20 25 1015.7 1015.6 5.6
28/06:30am 14.0 8.5 10.4 79 1.9 SSE 30 39 16 21 1015.3 1015.3 5.6
28/06:00am 14.2 8.3 10.6 79 1.9 SSE 32 43 17 23 1015.1 1015.1 5.6
28/05:30am 14.3 8.8 10.7 79 1.9 SSE 30 41 16 22 1014.8 1014.8 5.4
28/05:00am 14.4 7.3 9.6 73 2.5 S 37 44 20 24 1014.2 1014.2 5.4
28/04:37am 14.3 9.2 10.7 79 1.9 SSE 28 46 15 25 1013.9 1013.9 5.4
28/04:30am 14.4 9.6 11.6 83 1.5 SSE 28 37 15 20 1014.0 1014.0 5.4
28/04:00am 14.1 6.2 10.7 80 1.8 S 43 52 23 28 1013.3 1013.3 5.4
28/03:30am 13.8 6.3 11.0 83 1.5 SSE 41 57 22 31 1013.2 1013.2 5.4
28/03:26am 14.3 7.6 11.1 81 1.7 SSE 37 56 20 30 1013.1 1013.1 5.4
28/03:00am 14.8 6.1 11.2 79 1.9 S 48 56 26 30 1013.1 1013.1 5.4
28/02:30am 15.0 7.0 11.2 78 2.0 S 44 56 24 30 1012.9 1012.9 5.4
28/02:00am 14.8 6.8 11.2 79 1.9 S 44 56 24 30 1012.3 1012.3 5.4
28/01:30am 14.4 7.1 11.4 82 1.6 S 41 52 22 28 1012.0 1012.0 5.4
28/01:13am 14.1 7.1 11.1 82 1.6 S 39 59 21 32 1011.9 1011.9 5.4
28/01:00am 14.0 4.9 11.2 83 1.5 S 50 63 27 34 1012.0 1012.0 5.4
28/12:30am 14.9 6.4 10.5 75 2.3 SSW 46 54 25 29 1011.6 1011.6 5.4
28/12:00am 14.9 6.2 9.9 72 2.6 S 46 61 25 33 1011.1 1011.1 5.4
 
Date/Time
CST
Temp
°C
App
Temp
°C
Dew
Point
Rel
Hum
%
Delta-T
°C
Wind Press
QNH
hPa
Press
MSL
hPa
Rain
since 9 am
mm
Dir
 
Spd
km/h
Gust
km/h
Spd
kts
Gust
kts
27/11:30pm 14.7 5.4 10.5 76 2.2 S 50 61 27 33 1010.4 1010.4 5.4
27/11:12pm 14.7 6.0 11.3 80 1.8 S 48 67 26 36 1010.2 1010.2 5.4
27/11:00pm 14.6 5.1 11.0 79 1.9 SSW 52 67 28 36 1009.8 1009.8 5.4
27/10:30pm 14.4 4.2 11.4 82 1.6 SSW 56 72 30 39 1009.1 1009.1 5.4
27/10:00pm 14.2 3.9 11.7 85 1.3 SW 57 70 31 38 1008.8 1008.8 5.2
27/09:30pm 14.0 3.9 11.7 86 1.2 WSW 56 74 30 40 1008.7 1008.7 4.4
27/09:14pm 13.2 2.3 10.9 86 1.2 WSW 59 78 32 42 1008.8 1008.8 4.2
27/09:00pm 13.8 1.8 11.0 83 1.5 WSW 65 78 35 42 1009.1 1009.1 3.8
27/08:42pm 13.6 0.5 9.8 78 2.0 WSW 69 87 37 47 1008.8 1008.8 3.6
27/08:30pm 14.1 1.4 9.9 76 2.2 WSW 67 80 36 43 1009.1 1009.1 3.6
27/08:15pm 14.1 3.3 10.1 77 2.1 WSW 57 76 31 41 1009.2 1009.2 3.6
27/08:11pm 13.6 1.6 9.6 77 2.1 WSW 63 83 34 45 1009.4 1009.4 3.6
27/08:04pm 13.5 0.1 9.6 77 2.0 WSW 70 93 38 50 1009.3 1009.3 3.6
27/08:00pm 13.9 1.0 9.3 74 2.3 WSW 67 93 36 50 1009.0 1009.0 3.6
27/07:51pm 13.9 2.8 8.7 71 2.6 WSW 57 82 31 44 1009.3 1009.3 3.6
27/07:30pm 14.4 2.2 7.2 62 3.5 WSW 61 76 33 41 1009.2 1009.2 3.6
27/07:12pm 14.5 1.4 6.8 60 3.7 WSW 65 83 35 45 1009.2 1009.2 3.6
27/07:00pm 14.2 1.5 6.8 61 3.6 SW 63 78 34 42 1009.1 1009.1 3.6
27/06:30pm 14.5 1.0 8.2 66 3.2 SW 69 80 37 43 1008.9 1008.9 3.6
27/06:00pm 14.4 2.3 7.7 64 3.3 SW 61 74 33 40 1008.7 1008.7 3.6
27/05:30pm 14.3 0.7 7.8 65 3.2 SW 69 82 37 44 1008.4 1008.4 3.6
27/05:16pm 14.2 3.3 9.6 74 2.4 SW 57 78 31 42 1008.1 1008.1 3.6
27/05:00pm 14.0 2.8 10.0 77 2.1 SW 59 69 32 37 1008.2 1008.2 3.6
27/04:39pm 13.2 0.8 8.1 71 2.5 SW 63 95 34 51 1007.7 1007.7 3.4
27/04:30pm 14.2 1.6 8.8 70 2.7 SW 65 76 35 41 1008.0 1008.0 3.4
27/04:00pm 13.9 2.9 9.3 74 2.3 SW 57 69 31 37 1007.5 1007.5 3.4
27/03:30pm 13.9 1.2 9.9 77 2.1 SW 67 80 36 43 1007.1 1007.1 3.4
27/03:00pm 12.8 0.5 10.0 83 1.4 SW 65 87 35 47 1006.7 1006.7 3.4
27/02:38pm 13.8 2.1 9.5 75 2.2 WSW 61 82 33 44 1006.0 1006.0 2.8
27/02:30pm 13.8 2.1 9.5 75 2.2 WSW 61 74 33 40 1006.4 1006.4 2.8
27/02:00pm 13.2 1.8 9.1 76 2.1 WSW 59 70 32 38 1006.3 1006.3 2.8
27/01:43pm 12.4 1.0 9.2 81 1.6 SW 59 78 32 42 1006.5 1006.5 2.8
27/01:30pm 14.0 2.9 8.6 70 2.7 WSW 57 69 31 37 1006.2 1006.2 2.2
27/01:05pm 12.3 -0.8 8.2 76 2.0 WSW 67 85 36 46 1006.4 1006.4 2.2
27/01:00pm 12.1 -0.8 7.6 74 2.2 WSW 65 85 35 46 1006.0 1006.0 2.2
27/12:55pm 14.0 2.9 8.6 70 2.7 WSW 57 76 31 41 1006.1 1006.1 2.2
27/12:30pm 13.8 1.6 9.0 73 2.4 WSW 63 74 34 40 1006.3 1006.3 2.2
27/12:04pm 14.0 2.4 8.4 69 2.8 WSW 59 78 32 42 1006.2 1006.2 2.2
27/12:00pm 13.8 1.9 8.6 71 2.6 WSW 61 70 33 38 1006.4 1006.4 2.2
27/11:30am 14.1 1.4 8.5 69 2.8 WSW 65 89 35 48 1006.4 1006.4 2.2
27/11:18am 13.6 3.6 8.0 69 2.8 WSW 50 72 27 39 1006.6 1006.6 2.2
27/11:00am 12.9 2.6 8.2 73 2.3 WSW 52 61 28 33 1007.1 1007.1 2.2
27/10:43am 11.8 1.8 9.4 85 1.2 WSW 52 70 28 38 1007.3 1007.3 2.2
27/10:30am 10.9 -2.6 8.3 84 1.3 WSW 69 111 37 60 1007.5 1007.5 2.2
27/10:27am 10.5 -3.0 8.1 85 1.2 WSW 69 111 37 60 1007.6 1007.6 2.2
27/10:22am 10.7 -1.4 7.6 81 1.5 WSW 61 111 33 60 1007.2 1007.2 1.6
27/10:21am 12.3 1.3 9.0 80 1.7 WSW 57 111 31 60 1007.2 1007.2 1.6
27/10:20am 12.6 2.1 8.9 78 1.9 WSW 54 72 29 39 1007.7 1007.7 1.6
27/10:00am 12.0 0.7 8.1 77 1.9 WSW 57 74 31 40 1007.2 1007.2 1.6
27/09:53am 12.4 -0.1 9.1 80 1.7 WSW 65 83 35 45 1007.3 1007.3 1.6
27/09:30am 11.2 0.1 8.9 86 1.1 W 57 98 31 53 1006.9 1006.9 1.4
27/09:29am 10.9 0.3 8.3 84 1.3 W 54 98 29 53 1006.6 1006.6 1.2
27/09:28am 11.5 2.2 9.2 86 1.2 W 48 85 26 46 1006.8 1006.8 1.2
27/09:26am 12.9 5.3 10.4 85 1.3 W 41 76 22 41 1007.3 1007.3 1.2
27/09:10am 11.9 3.6 10.1 89 0.9 W 44 57 24 31 1007.7 1007.7 1.0
27/09:00am 10.4 -1.0 7.5 82 1.4 W 57 95 31 51 1007.5 1007.5 8.8
27/08:59am 10.3 -1.2 6.3 76 1.9 W 56 95 30 51 1007.2 1007.2 8.6
27/08:56am 13.8 4.5 10.4 80 1.8 W 50 69 27 37 1007.5 1007.5 8.0
27/08:30am 14.0 4.0 9.4 74 2.4 W 52 59 28 32 1007.2 1007.2 7.8
27/08:00am 14.8 5.7 10.0 73 2.5 WSW 48 61 26 33 1006.8 1006.8 7.8
27/07:30am 14.4 6.5 9.2 71 2.7 WSW 41 56 22 30 1006.9 1006.9 7.8
27/07:18am 13.1 2.9 8.4 73 2.3 WSW 52 80 28 43 1007.1 1007.1 7.8
27/07:14am 13.8 4.4 8.6 71 2.6 W 48 80 26 43 1006.4 1006.4 7.8
27/07:13am 14.5 5.8 10.1 75 2.3 W 46 74 25 40 1006.8 1006.8 7.8
27/07:00am 15.1 5.8 9.2 68 3.0 WSW 48 57 26 31 1007.0 1007.0 7.8
27/06:30am 14.9 5.2 9.1 68 3.0 WSW 50 61 27 33 1006.7 1006.7 7.8
27/06:00am 14.8 4.6 10.2 74 2.4 WSW 54 63 29 34 1007.0 1007.0 7.8
27/05:30am 14.9 5.2 10.3 74 2.4 WSW 52 61 28 33 1007.2 1007.2 7.8
27/05:00am 14.7 4.6 10.5 76 2.2 WSW 54 65 29 35 1007.2 1007.2 7.8
27/04:30am 14.5 4.7 11.3 81 1.7 W 54 63 29 34 1007.0 1007.0 7.8
27/04:00am 14.4 7.1 11.4 82 1.6 W 41 59 22 32 1007.4 1007.4 6.8
27/03:30am 15.2 6.2 11.6 79 1.9 W 50 61 27 33 1007.4 1007.4 6.8
27/03:00am 14.9 6.2 11.3 79 1.9 WNW 48 56 26 30 1007.7 1007.7 6.8
27/02:30am 14.5 6.7 11.7 83 1.5 WNW 44 52 24 28 1007.8 1007.8 6.8
27/02:00am 13.6 6.4 11.8 89 1.0 WNW 41 56 22 30 1007.7 1007.7 6.8
27/01:53am 13.5 8.1 12.1 91 0.8 NW 32 50 17 27 1008.0 1008.0 6.6
27/01:30am 14.1 7.9 12.7 91 0.8 NW 37 54 20 29 1008.2 1008.2 5.2
27/01:09am 13.4 6.6 11.8 90 0.9 NNW 39 57 21 31 1008.6 1008.6 4.2
27/01:00am 13.7 6.2 12.1 90 0.9 NNW 43 57 23 31 1008.4 1008.4 3.4
27/12:30am 14.9 9.5 12.9 88 1.1 NNW 33 41 18 22 1008.8 1008.8 2.6
27/12:00am 13.9 9.6 11.9 88 1.1 NNW 26 32 14 17 1009.4 1009.4 2.6
 
Date/Time
CST
Temp
°C
App
Temp
°C
Dew
Point
Rel
Hum
%
Delta-T
°C
Wind Press
QNH
hPa
Press
MSL
hPa
Rain
since 9 am
mm
Dir
 
Spd
km/h
Gust
km/h
Spd
kts
Gust
kts
26/11:30pm 13.7 8.1 12.1 90 0.9 NNW 33 46 18 25 1009.6 1009.6 2.6
26/11:29pm 13.8 8.2 12.2 90 0.9 NW 33 46 18 25 1009.7 1009.7 2.6
26/11:19pm 13.6 8.0 11.5 87 1.1 NNW 32 46 17 25 1009.8 1009.8 1.2
26/11:00pm 14.3 9.9 11.8 85 1.3 NNW 26 32 14 17 1009.8 1009.8 0.0
26/10:30pm 14.9 10.7 12.4 85 1.4 NNW 26 30 14 16 1010.1 1010.1 0.0
26/10:00pm 14.9 10.8 12.6 86 1.3 NNW 26 30 14 16 1010.4 1010.4 0.0
26/09:30pm 15.2 12.0 11.4 78 2.0 NW 19 24 10 13 1010.5 1010.5 0.0
26/09:00pm 14.9 11.7 12.0 83 1.6 NNW 20 28 11 15 1010.7 1010.7 0.0
26/08:30pm 14.9 11.3 11.9 82 1.6 NNW 22 28 12 15 1010.8 1010.8 0.0
26/08:00pm 15.6 11.5 11.4 76 2.3 WNW 24 28 13 15 1011.1 1011.1 0.0
26/07:30pm 15.5 11.2 10.7 73 2.5 WNW 24 28 13 15 1011.0 1011.0 0.0
26/07:00pm 15.9 12.3 10.7 71 2.8 W 20 24 11 13 1010.7 1010.7 0.0
26/06:30pm 15.8 11.8 10.6 71 2.8 WSW 22 28 12 15 1010.4 1010.4 0.0
26/06:00pm 15.9 11.6 10.7 71 2.8 WSW 24 30 13 16 1010.3 1010.3 0.0
26/05:30pm 15.8 10.9 10.1 69 3.0 W 26 32 14 17 1009.9 1009.9 0.0
26/05:00pm 15.9 10.7 10.2 69 3.0 WSW 28 32 15 17 1009.7 1009.7 0.0
26/04:30pm 16.0 10.9 10.7 71 2.8 WSW 28 33 15 18 1009.8 1009.8 0.0
26/04:00pm 16.2 10.9 9.8 66 3.3 W 28 33 15 18 1009.7 1009.7 0.0
26/03:30pm 16.5 11.6 10.1 66 3.4 WSW 26 30 14 16 1009.5 1009.5 0.0
26/03:00pm 16.2 10.4 10.7 70 2.9 WSW 32 41 17 22 1009.3 1009.3 0.0
26/02:30pm 16.9 11.1 10.7 67 3.3 W 32 37 17 20 1009.3 1009.3 0.0
26/02:00pm 16.4 10.8 10.3 67 3.2 W 30 35 16 19 1009.1 1009.1 0.0
26/01:30pm 16.8 12.2 10.9 68 3.2 W 26 30 14 16 1009.1 1009.1 0.0
26/01:00pm 15.8 10.5 9.9 68 3.1 WSW 28 33 15 18 1009.5 1009.5 0.0
26/12:30pm 16.1 10.8 10.0 67 3.2 W 28 35 15 19 1009.8 1009.8 0.0
26/12:00pm 16.7 11.8 10.1 65 3.5 W 26 33 14 18 1009.8 1009.8 0.0
26/11:30am 16.3 11.4 9.9 66 3.4 WSW 26 30 14 16 1010.1 1010.1 0.0
26/11:00am 15.5 11.3 9.8 69 3.0 WSW 22 26 12 14 1010.1 1010.1 0.0
26/10:30am 16.1 11.0 9.3 64 3.5 WSW 26 32 14 17 1010.3 1010.3 0.0
26/10:00am 15.9 10.4 9.3 65 3.4 WSW 28 33 15 18 1010.0 1010.0 0.0
26/09:30am 15.7 10.4 9.8 68 3.1 SW 28 32 15 17 1009.8 1009.8 0.0
26/09:00am 15.2 9.3 9.1 67 3.1 SW 30 35 16 19 1009.6 1009.6 2.4
26/08:30am 15.1 9.1 8.8 66 3.2 SW 30 37 16 20 1009.2 1009.2 2.4
26/08:00am 15.0 9.1 8.9 67 3.1 WSW 30 39 16 21 1009.1 1009.1 2.4
26/07:30am 14.8 7.8 8.3 65 3.3 SW 35 43 19 23 1008.9 1008.9 2.4
26/07:00am 15.1 9.0 9.9 71 2.7 WSW 32 39 17 21 1008.9 1008.9 2.4
26/06:30am 14.9 8.4 8.8 67 3.1 SW 33 43 18 23 1008.8 1008.8 2.4
26/06:00am 14.9 9.0 10.3 74 2.4 SW 32 43 17 23 1008.4 1008.4 2.4
26/05:30am 14.7 8.5 9.3 70 2.8 SW 32 39 17 21 1008.3 1008.3 2.4
26/05:00am 14.8 8.9 10.4 75 2.3 SW 32 37 17 20 1008.3 1008.3 2.4
26/04:30am 14.9 9.6 9.9 72 2.6 SW 28 32 15 17 1008.1 1008.1 2.4
26/04:00am 14.7 7.9 9.1 69 2.9 SW 35 43 19 23 1008.0 1008.0 2.4
26/03:30am 14.9 8.2 9.5 70 2.8 SW 35 43 19 23 1007.9 1007.9 2.4
26/03:00am 15.1 9.8 9.9 71 2.7 SW 28 33 15 18 1008.0 1008.0 2.4
26/02:30am 14.8 11.3 11.0 78 2.0 W 20 24 11 13 1007.9 1007.9 2.4
26/02:00am 14.7 8.7 10.1 74 2.4 SW 32 37 17 20 1007.9 1007.9 2.2
26/01:30am 15.1 10.7 10.5 74 2.4 SSW 24 30 13 16 1007.7 1007.7 2.2
26/01:00am 15.0 9.2 10.8 76 2.2 SSW 32 39 17 21 1007.5 1007.5 2.2
26/12:30am 15.3 10.5 10.3 72 2.6 SSW 26 32 14 17 1007.4 1007.4 2.2
26/12:00am 15.4 10.8 11.0 75 2.4 SSW 26 32 14 17 1007.5 1007.5 2.2
 
Date/Time
CST
Temp
°C
App
Temp
°C
Dew
Point
Rel
Hum
%
Delta-T
°C
Wind Press
QNH
hPa
Press
MSL
hPa
Rain
since 9 am
mm
Dir
 
Spd
km/h
Gust
km/h
Spd
kts
Gust
kts
25/11:30pm 15.6 11.1 11.4 76 2.3 SSW 26 30 14 16 1007.4 1007.4 2.2
25/11:00pm 15.0 9.5 12.3 84 1.5 SSW 33 44 18 24 1007.3 1007.3 2.2
25/10:53pm 15.0 10.6 11.6 80 1.8 SSW 26 44 14 24 1007.0 1007.0 2.2
25/10:30pm 14.8 14.1 12.1 84 1.5 SSW 7 9 4 5 1007.3 1007.3 2.2
25/10:00pm 14.9 13.6 12.4 85 1.4 SW 11 13 6 7 1007.5 1007.5 2.2
25/09:30pm 14.6 12.7 11.9 84 1.5 SSW 13 17 7 9 1007.3 1007.3 2.2
25/09:00pm 15.2 13.6 11.6 79 1.9 S 11 15 6 8 1007.3 1007.3 2.0
25/08:30pm 15.2 13.4 12.0 81 1.7 S 13 17 7 9 1007.1 1007.1 2.0
25/08:00pm 14.7 13.0 11.3 80 1.8 SSE 11 17 6 9 1006.8 1006.8 2.0

Other Formats:

Comma delimited format used in spreadsheet applications
http://www.bom.gov.au/fwo/IDS60801/IDS60801.94804.axf

JavaScript Object Notation format (JSON) in row-major order
http://www.bom.gov.au/fwo/IDS60801/IDS60801.94804.json